createdAt,value
2024-01-16T00:02:20.761Z,7.17
2024-01-16T00:06:03.839Z,5.07
2024-01-16T00:09:47.847Z,4.83
2024-01-16T00:13:32.120Z,6.37
2024-01-16T00:17:15.052Z,5.03
2024-01-16T00:20:57.984Z,5.80
2024-01-16T00:24:41.329Z,4.70
2024-01-16T00:28:24.188Z,4.20
2024-01-16T00:32:08.675Z,6.87
2024-01-16T00:35:52.414Z,3.30
2024-01-16T00:39:35.399Z,6.30
2024-01-16T00:43:18.354Z,4.13
2024-01-16T00:47:02.886Z,5.03
2024-01-16T00:50:47.520Z,3.33
2024-01-16T00:54:30.488Z,4.20
2024-01-16T00:58:13.800Z,5.30
2024-01-16T01:01:56.661Z,4.87
2024-01-16T01:05:39.934Z,3.93
2024-01-16T01:09:24.616Z,4.13
2024-01-16T01:13:07.480Z,3.33
2024-01-16T01:16:50.399Z,4.73
2024-01-16T01:20:33.431Z,5.97
2024-01-16T01:24:16.427Z,6.03
2024-01-16T01:28:01.353Z,4.40
2024-01-16T01:31:47.974Z,4.23
2024-01-16T01:35:30.838Z,3.37
2024-01-16T01:39:13.773Z,5.17
2024-01-16T01:42:56.680Z,2.60
2024-01-16T01:46:41.417Z,5.57
2024-01-16T01:50:24.358Z,4.90
2024-01-16T01:54:07.346Z,6.23
2024-01-16T01:57:50.178Z,6.57
2024-01-16T02:01:33.930Z,5.80
2024-01-16T02:05:18.454Z,3.40
2024-01-16T02:09:01.513Z,5.30
2024-01-16T02:12:44.409Z,5.67
2024-01-16T02:16:27.403Z,3.27
2024-01-16T02:20:11.514Z,5.20
2024-01-16T02:23:56.191Z,6.37
2024-01-16T02:27:39.296Z,4.13
2024-01-16T02:31:22.125Z,3.43
2024-01-16T02:35:06.382Z,3.57
2024-01-16T02:38:49.757Z,3.33
2024-01-16T02:42:34.023Z,4.43
2024-01-16T02:46:17.288Z,5.60
2024-01-16T02:50:00.499Z,4.30
2024-01-16T02:53:43.572Z,4.73
2024-01-16T02:57:26.581Z,3.50
2024-01-16T03:01:10.897Z,4.47
2024-01-16T03:04:53.887Z,5.03
2024-01-16T03:08:36.810Z,5.60
2024-01-16T03:12:19.696Z,4.63
2024-01-16T03:16:03.218Z,4.97
2024-01-16T03:19:47.659Z,4.73
2024-01-16T03:23:30.604Z,5.37
2024-01-16T03:27:13.758Z,4.50
2024-01-16T03:30:56.799Z,4.33
2024-01-16T03:34:39.784Z,6.97
2024-01-16T03:38:24.132Z,5.13
2024-01-16T03:42:07.139Z,4.70
2024-01-16T03:45:50.076Z,3.60
2024-01-16T03:49:33.064Z,5.17
2024-01-16T03:53:16.013Z,4.77
2024-01-16T03:57:03.336Z,6.60
2024-01-16T04:00:46.587Z,5.97
2024-01-16T04:04:29.462Z,5.93
2024-01-16T04:08:13.663Z,5.67
2024-01-16T04:11:56.652Z,6.17
2024-01-16T04:15:41.811Z,5.70
2024-01-16T04:19:24.923Z,4.73
2024-01-16T04:23:08.088Z,5.73
2024-01-16T04:26:51.894Z,4.93
2024-01-16T04:30:35.037Z,6.30
2024-01-16T04:34:19.496Z,4.53
2024-01-16T04:38:02.337Z,5.93
2024-01-16T04:41:45.372Z,4.20
2024-01-16T04:45:28.362Z,3.57
2024-01-16T04:49:11.292Z,5.80
2024-01-16T04:52:55.536Z,7.47
2024-01-16T04:56:38.448Z,4.77
2024-01-16T05:00:21.446Z,4.53
2024-01-16T05:04:05.134Z,6.50
2024-01-16T05:07:48.175Z,3.90
2024-01-16T05:11:32.684Z,6.40
2024-01-16T05:15:16.021Z,4.40
2024-01-16T05:18:59.062Z,6.80
2024-01-16T05:22:42.089Z,5.80
2024-01-16T05:26:27.361Z,4.93
2024-01-16T05:30:12.632Z,5.40
2024-01-16T05:33:55.671Z,5.33
2024-01-16T05:37:38.774Z,4.03
2024-01-16T05:41:21.753Z,3.73
2024-01-16T05:45:05.262Z,5.13
2024-01-16T05:48:49.746Z,3.50
2024-01-16T05:52:32.769Z,4.37
2024-01-16T05:56:15.868Z,5.53
2024-01-16T05:59:58.836Z,5.33
2024-01-16T06:03:41.809Z,6.87
2024-01-16T06:07:26.058Z,6.17
2024-01-16T06:11:10.084Z,4.40
2024-01-16T06:14:54.018Z,4.10
2024-01-16T06:18:37.232Z,5.00
2024-01-16T06:22:20.336Z,6.37
2024-01-16T06:26:04.703Z,5.57
2024-01-16T06:29:47.784Z,5.30
2024-01-16T06:33:31.002Z,7.27
2024-01-16T06:37:14.004Z,4.83
2024-01-16T06:40:57.297Z,4.30
2024-01-16T06:44:41.686Z,5.57
2024-01-16T06:48:24.851Z,7.33
2024-01-16T06:52:10.301Z,4.23
2024-01-16T06:55:53.166Z,5.83
2024-01-16T06:59:36.069Z,6.10
2024-01-16T07:03:20.400Z,5.97
2024-01-16T07:07:04.008Z,4.53
2024-01-16T07:10:47.196Z,7.63
2024-01-16T07:14:30.143Z,5.73
2024-01-16T07:18:13.294Z,5.73
2024-01-16T07:21:57.641Z,3.00
2024-01-16T07:25:41.108Z,5.33
2024-01-16T07:29:23.994Z,5.73
2024-01-16T07:33:06.980Z,6.23
2024-01-16T07:36:50.269Z,5.93
2024-01-16T07:40:34.467Z,6.30
2024-01-16T07:44:17.376Z,7.40
2024-01-16T07:48:00.587Z,5.53
2024-01-16T07:51:43.470Z,9.50
2024-01-16T07:55:26.387Z,9.27
2024-01-16T07:59:10.818Z,9.07
2024-01-16T08:02:56.483Z,7.40
2024-01-16T08:06:39.519Z,7.23
2024-01-16T08:10:25.745Z,7.53
2024-01-16T08:14:10.142Z,9.60
2024-01-16T08:17:56.268Z,8.10
2024-01-16T08:21:39.250Z,7.43
2024-01-16T08:25:22.183Z,8.07
2024-01-16T08:29:06.365Z,9.37
2024-01-16T08:32:50.721Z,7.47
2024-01-16T08:36:33.845Z,11.67
2024-01-16T08:40:16.877Z,8.63
2024-01-16T08:44:01.942Z,11.60
2024-01-16T08:47:44.990Z,9.90
2024-01-16T08:51:29.401Z,10.03
2024-01-16T08:55:13.655Z,7.90
2024-01-16T08:58:56.828Z,5.57
2024-01-16T09:02:39.846Z,9.53
2024-01-16T09:06:23.222Z,7.47
2024-01-16T09:10:08.592Z,7.03
2024-01-16T09:13:55.076Z,9.47
2024-01-16T09:17:38.265Z,7.87
2024-01-16T09:21:21.267Z,9.30
2024-01-16T09:25:04.273Z,8.17
2024-01-16T09:28:48.578Z,6.93
2024-01-16T09:32:31.878Z,8.70
2024-01-16T09:36:14.935Z,6.33
2024-01-16T09:39:57.883Z,7.43
2024-01-16T09:43:41.344Z,8.80
2024-01-16T09:47:26.822Z,6.50
2024-01-16T09:51:09.958Z,6.10
2024-01-16T09:54:52.863Z,8.73
2024-01-16T09:58:39.016Z,7.73
2024-01-16T10:02:23.202Z,6.57
2024-01-16T10:06:09.069Z,7.63
2024-01-16T10:09:52.143Z,7.83
2024-01-16T10:13:35.282Z,6.57
2024-01-16T10:17:19.729Z,7.03
2024-01-16T10:21:03.057Z,7.73
2024-01-16T10:24:47.678Z,6.87
2024-01-16T10:28:30.594Z,6.13
2024-01-16T10:32:13.585Z,5.77
2024-01-16T10:36:10.013Z,5.77
2024-01-16T10:39:54.287Z,6.87
2024-01-16T10:43:37.285Z,8.57
2024-01-16T10:47:20.181Z,7.23
2024-01-16T10:51:12.817Z,5.97
2024-01-16T10:54:59.473Z,7.27
2024-01-16T10:58:43.683Z,5.67
2024-01-16T11:02:30.396Z,7.67
2024-01-16T11:06:14.606Z,5.37
2024-01-16T11:09:59.069Z,5.43
2024-01-16T11:13:42.363Z,4.87
2024-01-16T11:17:25.838Z,5.73
2024-01-16T11:21:14.319Z,8.37
2024-01-16T11:25:14.732Z,4.30
2024-01-16T11:28:58.288Z,3.33
2024-01-16T11:32:42.715Z,4.93
2024-01-16T11:37:02.375Z,3.57
2024-01-16T11:40:46.785Z,3.73
2024-01-16T11:44:43.628Z,5.17
2024-01-16T11:48:27.107Z,5.03
2024-01-16T11:52:12.277Z,3.47
2024-01-16T11:56:13.646Z,4.60
2024-01-16T12:00:01.311Z,5.47
2024-01-16T12:03:44.527Z,4.03
2024-01-16T12:07:27.475Z,4.33
2024-01-16T12:11:11.786Z,4.67
2024-01-16T12:14:55.696Z,4.50
2024-01-16T12:18:43.053Z,3.03
2024-01-16T12:22:29.598Z,4.70
2024-01-16T12:26:22.247Z,2.53
2024-01-16T12:30:09.486Z,3.53
2024-01-16T12:33:58.363Z,1.83
2024-01-16T12:37:59.970Z,2.27
2024-01-16T12:41:46.464Z,5.17
2024-01-16T12:45:30.779Z,3.33
2024-01-16T12:49:13.817Z,5.33
2024-01-16T12:53:06.589Z,4.80
2024-01-16T12:57:00.430Z,3.50
2024-01-16T13:00:43.763Z,5.23
2024-01-16T13:04:26.678Z,5.10
2024-01-16T13:08:10.008Z,3.10
2024-01-16T13:11:56.717Z,5.00
2024-01-16T13:15:40.091Z,6.13
2024-01-16T13:19:23.601Z,3.83
2024-01-16T13:23:06.546Z,4.37
2024-01-16T13:26:49.462Z,4.60
2024-01-16T13:30:43.771Z,4.53
2024-01-16T13:34:30.538Z,5.07
2024-01-16T13:38:14.393Z,3.13
2024-01-16T13:41:57.632Z,4.00
2024-01-16T13:45:42.721Z,4.37
2024-01-16T13:49:25.818Z,3.10
2024-01-16T13:53:09.035Z,5.53
2024-01-16T13:57:02.666Z,4.53
2024-01-16T14:00:54.669Z,3.87
2024-01-16T14:04:37.682Z,5.50
2024-01-16T14:08:23.001Z,5.33
2024-01-16T14:12:09.729Z,3.97
2024-01-16T14:15:54.352Z,3.07
2024-01-16T14:19:37.351Z,3.33
2024-01-16T14:23:21.673Z,4.50
2024-01-16T14:27:05.496Z,9.33
2024-01-16T14:30:50.010Z,5.40
2024-01-16T14:34:34.446Z,7.70
2024-01-16T14:38:17.510Z,3.77
2024-01-16T14:42:00.821Z,6.20
2024-01-16T14:45:44.025Z,6.10
2024-01-16T14:49:32.629Z,6.43
2024-01-16T14:53:17.037Z,6.80
2024-01-16T14:57:00.164Z,4.90
2024-01-16T15:00:46.727Z,4.80
2024-01-16T15:04:29.758Z,6.63
2024-01-16T15:08:14.174Z,3.67
2024-01-16T15:11:58.680Z,5.43
2024-01-16T15:15:41.675Z,4.27
2024-01-16T15:19:24.612Z,4.23
2024-01-16T15:23:07.627Z,4.10
2024-01-16T15:26:50.590Z,4.87
2024-01-16T15:30:36.858Z,5.53
2024-01-16T15:34:19.966Z,3.23
2024-01-16T15:38:03.861Z,5.13
2024-01-16T15:41:47.323Z,5.80
2024-01-16T15:45:30.949Z,7.57
2024-01-16T15:49:16.082Z,6.60
2024-01-16T15:52:59.279Z,5.00
2024-01-16T15:56:42.156Z,6.37
2024-01-16T16:00:24.998Z,8.53
2024-01-16T16:04:08.325Z,5.70
2024-01-16T16:07:52.698Z,5.37
2024-01-16T16:11:37.123Z,10.00
2024-01-16T16:15:20.205Z,6.27
2024-01-16T16:19:03.345Z,9.13
2024-01-16T16:22:48.392Z,6.40
2024-01-16T16:26:34.073Z,9.77
2024-01-16T16:30:17.156Z,8.87
2024-01-16T16:34:01.463Z,5.87
2024-01-16T16:37:45.432Z,11.57
2024-01-16T16:41:29.807Z,7.33
2024-01-16T16:45:14.146Z,10.63
2024-01-16T16:48:57.627Z,5.57
2024-01-16T16:52:40.778Z,9.43
2024-01-16T16:56:24.848Z,7.57
2024-01-16T17:00:09.632Z,8.03
2024-01-16T17:03:54.693Z,10.13
2024-01-16T17:07:37.758Z,11.13
2024-01-16T17:11:20.837Z,10.23
2024-01-16T17:15:05.784Z,12.07
2024-01-16T17:18:49.147Z,9.67
2024-01-16T17:22:33.427Z,11.27
2024-01-16T17:26:16.621Z,13.53
2024-01-16T17:29:59.796Z,11.70
2024-01-16T17:33:44.209Z,10.57
2024-01-16T17:37:27.758Z,10.37
2024-01-16T17:41:12.190Z,11.40
2024-01-16T17:44:59.837Z,10.37
2024-01-16T17:48:44.384Z,13.83
2024-01-16T17:52:27.427Z,26.97
2024-01-16T17:56:10.580Z,10.77
2024-01-16T17:59:55.102Z,11.17
2024-01-16T18:03:43.078Z,14.67
2024-01-16T18:07:29.689Z,16.70
2024-01-16T18:11:13.932Z,16.67
2024-01-16T18:14:58.694Z,16.33
2024-01-16T18:18:43.144Z,13.43
2024-01-16T18:22:26.400Z,17.20
2024-01-16T18:26:09.937Z,15.47
2024-01-16T18:29:52.958Z,14.30
2024-01-16T18:33:39.457Z,14.00
2024-01-16T18:37:23.062Z,13.87
2024-01-16T18:41:06.252Z,16.33
2024-01-16T18:44:49.819Z,16.67
2024-01-16T18:48:34.270Z,15.70
2024-01-16T18:52:18.946Z,15.97
2024-01-16T18:56:01.829Z,18.47
2024-01-16T18:59:46.246Z,15.83
2024-01-16T19:03:29.280Z,13.43
2024-01-16T19:07:13.952Z,15.80
2024-01-16T19:10:58.144Z,16.67
2024-01-16T19:14:45.918Z,17.03
2024-01-16T19:18:32.364Z,15.03
2024-01-16T19:22:15.384Z,15.43
2024-01-16T19:25:59.776Z,16.57
2024-01-16T19:29:42.670Z,15.63
2024-01-16T19:33:25.649Z,17.47
2024-01-16T19:37:08.752Z,16.33
2024-01-16T19:40:51.878Z,15.43
2024-01-16T19:44:36.116Z,18.53
2024-01-16T19:48:20.493Z,18.50
2024-01-16T19:52:03.834Z,16.70
2024-01-16T19:55:47.600Z,20.93
2024-01-16T19:59:32.051Z,18.70
2024-01-16T20:03:16.473Z,13.97
2024-01-16T20:06:59.511Z,23.00
2024-01-16T20:10:42.485Z,18.53
2024-01-16T20:14:25.453Z,19.30
2024-01-16T20:18:10.813Z,24.10
2024-01-16T20:21:55.193Z,20.10
2024-01-16T20:25:38.034Z,21.43
2024-01-16T20:29:21.321Z,18.80
2024-01-16T20:33:04.523Z,19.17
2024-01-16T20:36:52.966Z,29.83
2024-01-16T20:40:38.364Z,21.33
2024-01-16T20:44:21.911Z,18.63
2024-01-16T20:48:05.615Z,23.37
2024-01-16T20:51:48.825Z,20.50
2024-01-16T20:55:31.730Z,18.23
2024-01-16T20:59:15.987Z,22.17
2024-01-16T21:02:58.930Z,20.37
2024-01-16T21:06:42.820Z,18.97
2024-01-16T21:10:25.725Z,18.73
2024-01-16T21:14:08.608Z,22.47
2024-01-16T21:17:53.312Z,19.83
2024-01-16T21:21:36.363Z,17.93
2024-01-16T21:25:20.495Z,26.57
2024-01-16T21:29:03.385Z,18.83
2024-01-16T21:32:46.342Z,19.97
2024-01-16T21:36:31.411Z,17.13
2024-01-16T21:40:14.758Z,23.40
2024-01-16T21:43:57.912Z,19.13
2024-01-16T21:47:41.069Z,22.33
2024-01-16T21:51:24.547Z,21.10
2024-01-16T21:55:09.763Z,21.57
2024-01-16T21:58:52.619Z,20.97
2024-01-16T22:02:35.538Z,21.23
2024-01-16T22:06:18.506Z,17.77
2024-01-16T22:10:01.619Z,20.23
2024-01-16T22:13:46.185Z,20.40
2024-01-16T22:17:30.572Z,18.50
2024-01-16T22:21:13.606Z,22.63
2024-01-16T22:24:56.515Z,19.67
2024-01-16T22:28:44.507Z,19.50
2024-01-16T22:32:30.346Z,19.40
2024-01-16T22:36:16.221Z,20.03
2024-01-16T22:39:59.113Z,18.03
2024-01-16T22:43:41.990Z,18.43
2024-01-16T22:47:24.978Z,24.87
2024-01-16T22:51:10.490Z,18.73
2024-01-16T22:54:53.525Z,23.40
2024-01-16T22:58:36.432Z,18.53
2024-01-16T23:02:19.305Z,17.87
2024-01-16T23:06:02.740Z,19.53
2024-01-16T23:09:48.154Z,22.33
2024-01-16T23:13:31.334Z,19.33
2024-01-16T23:17:14.185Z,20.20
2024-01-16T23:20:57.082Z,20.33
2024-01-16T23:24:40.030Z,22.97
2024-01-16T23:28:24.314Z,19.70
2024-01-16T23:32:08.409Z,22.07
2024-01-16T23:35:51.281Z,17.70
2024-01-16T23:39:35.668Z,18.33
2024-01-16T23:43:24.160Z,16.97
2024-01-16T23:47:08.982Z,20.00
2024-01-16T23:50:52.674Z,19.13
2024-01-16T23:54:35.551Z,19.00
2024-01-16T23:58:18.421Z,18.43
